sensor_id;sensor_type;location;lat;lon;timestamp;pressure;altitude;pressure_sealevel;temperature
38114;BMP180;23926;53.222;6.354;2023-04-15T00:02:20;100915.00;;;8.70
38114;BMP180;23926;53.222;6.354;2023-04-15T00:04:46;100927.00;;;8.70
38114;BMP180;23926;53.222;6.354;2023-04-15T00:07:12;100904.00;;;8.70
38114;BMP180;23926;53.222;6.354;2023-04-15T00:09:38;100921.00;;;8.70
38114;BMP180;23926;53.222;6.354;2023-04-15T00:12:04;100923.00;;;8.60
38114;BMP180;23926;53.222;6.354;2023-04-15T00:14:29;100915.00;;;8.60
38114;BMP180;23926;53.222;6.354;2023-04-15T00:16:55;100926.00;;;8.60
38114;BMP180;23926;53.222;6.354;2023-04-15T00:19:22;100919.00;;;8.60
38114;BMP180;23926;53.222;6.354;2023-04-15T00:21:48;100926.00;;;8.50
38114;BMP180;23926;53.222;6.354;2023-04-15T00:24:13;100934.00;;;8.60
38114;BMP180;23926;53.222;6.354;2023-04-15T00:26:39;100912.00;;;8.50
38114;BMP180;23926;53.222;6.354;2023-04-15T00:29:05;100928.00;;;8.40
38114;BMP180;23926;53.222;6.354;2023-04-15T00:31:30;100929.00;;;8.40
38114;BMP180;23926;53.222;6.354;2023-04-15T00:33:56;100916.00;;;8.40
38114;BMP180;23926;53.222;6.354;2023-04-15T00:36:21;100908.00;;;8.40
38114;BMP180;23926;53.222;6.354;2023-04-15T00:38:47;100909.00;;;8.40
38114;BMP180;23926;53.222;6.354;2023-04-15T00:41:13;100908.00;;;8.50
38114;BMP180;23926;53.222;6.354;2023-04-15T00:43:38;100916.00;;;8.40
38114;BMP180;23926;53.222;6.354;2023-04-15T00:46:04;100915.00;;;8.40
38114;BMP180;23926;53.222;6.354;2023-04-15T00:48:31;100923.00;;;8.30
38114;BMP180;23926;53.222;6.354;2023-04-15T00:50:56;100919.00;;;8.40
38114;BMP180;23926;53.222;6.354;2023-04-15T00:53:22;100922.00;;;8.30
38114;BMP180;23926;53.222;6.354;2023-04-15T00:55:48;100948.00;;;8.30
38114;BMP180;23926;53.222;6.354;2023-04-15T00:58:13;100922.00;;;8.30
38114;BMP180;23926;53.222;6.354;2023-04-15T01:00:39;100934.00;;;8.30
38114;BMP180;23926;53.222;6.354;2023-04-15T01:03:05;100937.00;;;8.30
38114;BMP180;23926;53.222;6.354;2023-04-15T01:05:31;100927.00;;;8.30
38114;BMP180;23926;53.222;6.354;2023-04-15T01:07:57;100922.00;;;8.30
38114;BMP180;23926;53.222;6.354;2023-04-15T01:10:22;100937.00;;;8.30
38114;BMP180;23926;53.222;6.354;2023-04-15T01:12:48;100942.00;;;8.30
38114;BMP180;23926;53.222;6.354;2023-04-15T01:15:14;100936.00;;;8.20
38114;BMP180;23926;53.222;6.354;2023-04-15T01:17:40;100938.00;;;8.20
38114;BMP180;23926;53.222;6.354;2023-04-15T01:20:06;100933.00;;;8.20
38114;BMP180;23926;53.222;6.354;2023-04-15T01:22:34;100938.00;;;8.20
38114;BMP180;23926;53.222;6.354;2023-04-15T01:25:06;100940.00;;;8.20
38114;BMP180;23926;53.222;6.354;2023-04-15T01:27:33;100941.00;;;8.20
38114;BMP180;23926;53.222;6.354;2023-04-15T01:29:59;100950.00;;;8.20
38114;BMP180;23926;53.222;6.354;2023-04-15T01:32:25;100943.00;;;8.20
38114;BMP180;23926;53.222;6.354;2023-04-15T01:34:51;100951.00;;;8.10
38114;BMP180;23926;53.222;6.354;2023-04-15T01:37:16;100935.00;;;8.10
38114;BMP180;23926;53.222;6.354;2023-04-15T01:39:42;100940.00;;;8.10
38114;BMP180;23926;53.222;6.354;2023-04-15T01:42:07;100938.00;;;8.00
38114;BMP180;23926;53.222;6.354;2023-04-15T01:44:32;100958.00;;;8.00
38114;BMP180;23926;53.222;6.354;2023-04-15T01:46:58;100953.00;;;8.00
38114;BMP180;23926;53.222;6.354;2023-04-15T01:49:23;100946.00;;;8.00
38114;BMP180;23926;53.222;6.354;2023-04-15T01:51:49;100951.00;;;8.00
38114;BMP180;23926;53.222;6.354;2023-04-15T01:54:14;100934.00;;;8.00
38114;BMP180;23926;53.222;6.354;2023-04-15T01:56:40;100949.00;;;8.00
38114;BMP180;23926;53.222;6.354;2023-04-15T01:59:06;100942.00;;;7.90
38114;BMP180;23926;53.222;6.354;2023-04-15T02:01:31;100952.00;;;7.90
38114;BMP180;23926;53.222;6.354;2023-04-15T02:03:57;100947.00;;;8.00
38114;BMP180;23926;53.222;6.354;2023-04-15T02:06:22;100931.00;;;7.90
38114;BMP180;23926;53.222;6.354;2023-04-15T02:08:48;100900.00;;;7.90
38114;BMP180;23926;53.222;6.354;2023-04-15T02:11:14;100931.00;;;7.90
38114;BMP180;23926;53.222;6.354;2023-04-15T02:13:39;100943.00;;;7.80
38114;BMP180;23926;53.222;6.354;2023-04-15T02:16:17;100945.00;;;7.80
38114;BMP180;23926;53.222;6.354;2023-04-15T02:18:44;100943.00;;;7.80
38114;BMP180;23926;53.222;6.354;2023-04-15T02:21:09;100940.00;;;7.80
38114;BMP180;23926;53.222;6.354;2023-04-15T02:23:35;100937.00;;;7.80
38114;BMP180;23926;53.222;6.354;2023-04-15T02:26:00;100962.00;;;7.70
38114;BMP180;23926;53.222;6.354;2023-04-15T02:28:26;100949.00;;;7.70
38114;BMP180;23926;53.222;6.354;2023-04-15T02:30:51;100943.00;;;7.70
38114;BMP180;23926;53.222;6.354;2023-04-15T02:33:18;100965.00;;;7.70
38114;BMP180;23926;53.222;6.354;2023-04-15T02:35:44;100961.00;;;7.70
38114;BMP180;23926;53.222;6.354;2023-04-15T02:38:10;100963.00;;;7.60
38114;BMP180;23926;53.222;6.354;2023-04-15T02:40:36;100972.00;;;7.60
38114;BMP180;23926;53.222;6.354;2023-04-15T02:43:01;100961.00;;;7.60
38114;BMP180;23926;53.222;6.354;2023-04-15T02:45:27;100967.00;;;7.50
38114;BMP180;23926;53.222;6.354;2023-04-15T02:47:53;100976.00;;;7.50
38114;BMP180;23926;53.222;6.354;2023-04-15T02:50:19;100992.00;;;7.50
38114;BMP180;23926;53.222;6.354;2023-04-15T02:52:45;100978.00;;;7.40
38114;BMP180;23926;53.222;6.354;2023-04-15T02:55:10;100975.00;;;7.40
38114;BMP180;23926;53.222;6.354;2023-04-15T02:57:36;100969.00;;;7.40
38114;BMP180;23926;53.222;6.354;2023-04-15T03:00:04;100997.00;;;7.40
38114;BMP180;23926;53.222;6.354;2023-04-15T03:02:34;100997.00;;;7.40
38114;BMP180;23926;53.222;6.354;2023-04-15T03:05:00;100983.00;;;7.30
38114;BMP180;23926;53.222;6.354;2023-04-15T03:07:25;100987.00;;;7.30
38114;BMP180;23926;53.222;6.354;2023-04-15T03:09:51;100995.00;;;7.30
38114;BMP180;23926;53.222;6.354;2023-04-15T03:12:16;100988.00;;;7.40
38114;BMP180;23926;53.222;6.354;2023-04-15T03:14:42;100997.00;;;7.30
38114;BMP180;23926;53.222;6.354;2023-04-15T03:17:07;100999.00;;;7.30
38114;BMP180;23926;53.222;6.354;2023-04-15T03:19:32;101007.00;;;7.30
38114;BMP180;23926;53.222;6.354;2023-04-15T03:21:58;100988.00;;;7.30
38114;BMP180;23926;53.222;6.354;2023-04-15T03:24:23;101009.00;;;7.30
38114;BMP180;23926;53.222;6.354;2023-04-15T03:26:49;100997.00;;;7.30
38114;BMP180;23926;53.222;6.354;2023-04-15T03:29:14;100998.00;;;7.30
38114;BMP180;23926;53.222;6.354;2023-04-15T03:31:40;101011.00;;;7.30
38114;BMP180;23926;53.222;6.354;2023-04-15T03:34:06;101007.00;;;7.30
38114;BMP180;23926;53.222;6.354;2023-04-15T03:36:31;101008.00;;;7.30
38114;BMP180;23926;53.222;6.354;2023-04-15T03:38:58;100993.00;;;7.30
38114;BMP180;23926;53.222;6.354;2023-04-15T03:41:23;101007.00;;;7.30
38114;BMP180;23926;53.222;6.354;2023-04-15T03:43:48;101003.00;;;7.30
38114;BMP180;23926;53.222;6.354;2023-04-15T03:46:16;101005.00;;;7.20
38114;BMP180;23926;53.222;6.354;2023-04-15T03:48:42;101028.00;;;7.10
38114;BMP180;23926;53.222;6.354;2023-04-15T03:51:07;101026.00;;;7.10
38114;BMP180;23926;53.222;6.354;2023-04-15T03:53:33;101001.00;;;7.10
38114;BMP180;23926;53.222;6.354;2023-04-15T03:55:58;101025.00;;;7.00
38114;BMP180;23926;53.222;6.354;2023-04-15T03:58:23;101013.00;;;7.00
38114;BMP180;23926;53.222;6.354;2023-04-15T04:00:49;101021.00;;;7.00
38114;BMP180;23926;53.222;6.354;2023-04-15T04:03:14;101031.00;;;7.00
38114;BMP180;23926;53.222;6.354;2023-04-15T04:05:39;101028.00;;;7.00
38114;BMP180;23926;53.222;6.354;2023-04-15T04:08:06;101033.00;;;6.90
38114;BMP180;23926;53.222;6.354;2023-04-15T04:10:31;101044.00;;;6.80
38114;BMP180;23926;53.222;6.354;2023-04-15T04:12:57;101031.00;;;6.80
38114;BMP180;23926;53.222;6.354;2023-04-15T04:15:22;101030.00;;;6.70
38114;BMP180;23926;53.222;6.354;2023-04-15T04:17:47;101045.00;;;6.70
38114;BMP180;23926;53.222;6.354;2023-04-15T04:20:13;101039.00;;;6.60
38114;BMP180;23926;53.222;6.354;2023-04-15T04:22:39;101048.00;;;6.60
38114;BMP180;23926;53.222;6.354;2023-04-15T04:25:05;101052.00;;;6.60
38114;BMP180;23926;53.222;6.354;2023-04-15T04:27:32;101039.00;;;6.50
38114;BMP180;23926;53.222;6.354;2023-04-15T04:29:58;101029.00;;;6.40
38114;BMP180;23926;53.222;6.354;2023-04-15T04:32:23;101041.00;;;6.30
38114;BMP180;23926;53.222;6.354;2023-04-15T04:34:49;101054.00;;;6.30
38114;BMP180;23926;53.222;6.354;2023-04-15T04:37:14;101063.00;;;6.40
38114;BMP180;23926;53.222;6.354;2023-04-15T04:39:40;101051.00;;;6.30
38114;BMP180;23926;53.222;6.354;2023-04-15T04:42:05;101061.00;;;6.10
38114;BMP180;23926;53.222;6.354;2023-04-15T04:44:31;101056.00;;;6.10
38114;BMP180;23926;53.222;6.354;2023-04-15T04:46:56;101047.00;;;6.10
38114;BMP180;23926;53.222;6.354;2023-04-15T04:49:22;101042.00;;;6.00
38114;BMP180;23926;53.222;6.354;2023-04-15T04:51:47;101051.00;;;5.90
38114;BMP180;23926;53.222;6.354;2023-04-15T04:54:13;101053.00;;;5.90
38114;BMP180;23926;53.222;6.354;2023-04-15T04:56:38;101057.00;;;6.00
38114;BMP180;23926;53.222;6.354;2023-04-15T04:59:04;101071.00;;;5.90
38114;BMP180;23926;53.222;6.354;2023-04-15T05:01:29;101058.00;;;5.90
38114;BMP180;23926;53.222;6.354;2023-04-15T05:03:55;101049.00;;;5.80
38114;BMP180;23926;53.222;6.354;2023-04-15T05:06:20;101066.00;;;5.80
38114;BMP180;23926;53.222;6.354;2023-04-15T05:08:47;101053.00;;;5.90
38114;BMP180;23926;53.222;6.354;2023-04-15T05:11:12;101058.00;;;5.90
38114;BMP180;23926;53.222;6.354;2023-04-15T05:13:37;101075.00;;;5.90
38114;BMP180;23926;53.222;6.354;2023-04-15T05:16:06;101068.00;;;6.00
38114;BMP180;23926;53.222;6.354;2023-04-15T05:18:31;101074.00;;;5.90
38114;BMP180;23926;53.222;6.354;2023-04-15T05:20:57;101070.00;;;5.90
38114;BMP180;23926;53.222;6.354;2023-04-15T05:23:23;101078.00;;;5.90
38114;BMP180;23926;53.222;6.354;2023-04-15T05:25:48;101082.00;;;6.10
38114;BMP180;23926;53.222;6.354;2023-04-15T05:28:14;101092.00;;;6.20
38114;BMP180;23926;53.222;6.354;2023-04-15T05:30:39;101093.00;;;6.20
38114;BMP180;23926;53.222;6.354;2023-04-15T05:33:05;101101.00;;;6.30
38114;BMP180;23926;53.222;6.354;2023-04-15T05:35:30;101090.00;;;6.40
38114;BMP180;23926;53.222;6.354;2023-04-15T05:37:56;101095.00;;;6.60
38114;BMP180;23926;53.222;6.354;2023-04-15T05:40:21;101110.00;;;6.70
38114;BMP180;23926;53.222;6.354;2023-04-15T05:42:47;101106.00;;;6.90
38114;BMP180;23926;53.222;6.354;2023-04-15T05:45:13;101101.00;;;7.00
38114;BMP180;23926;53.222;6.354;2023-04-15T05:47:38;101112.00;;;7.10
38114;BMP180;23926;53.222;6.354;2023-04-15T05:50:04;101094.00;;;7.20
38114;BMP180;23926;53.222;6.354;2023-04-15T05:52:30;101112.00;;;7.40
38114;BMP180;23926;53.222;6.354;2023-04-15T05:54:56;101108.00;;;7.50
38114;BMP180;23926;53.222;6.354;2023-04-15T05:57:21;101111.00;;;7.70
38114;BMP180;23926;53.222;6.354;2023-04-15T05:59:47;101127.00;;;7.80
38114;BMP180;23926;53.222;6.354;2023-04-15T06:02:13;101120.00;;;7.90
38114;BMP180;23926;53.222;6.354;2023-04-15T06:04:38;101126.00;;;8.00
38114;BMP180;23926;53.222;6.354;2023-04-15T06:07:04;101125.00;;;8.00
38114;BMP180;23926;53.222;6.354;2023-04-15T06:09:29;101131.00;;;8.00
38114;BMP180;23926;53.222;6.354;2023-04-15T06:11:55;101146.00;;;8.10
38114;BMP180;23926;53.222;6.354;2023-04-15T06:14:22;101142.00;;;8.20
38114;BMP180;23926;53.222;6.354;2023-04-15T06:16:47;101154.00;;;8.20
38114;BMP180;23926;53.222;6.354;2023-04-15T06:19:13;101164.00;;;8.40
38114;BMP180;23926;53.222;6.354;2023-04-15T06:21:38;101151.00;;;8.50
38114;BMP180;23926;53.222;6.354;2023-04-15T06:24:04;101167.00;;;8.60
38114;BMP180;23926;53.222;6.354;2023-04-15T06:26:29;101166.00;;;8.70
38114;BMP180;23926;53.222;6.354;2023-04-15T06:28:55;101174.00;;;8.90
38114;BMP180;23926;53.222;6.354;2023-04-15T06:31:21;101176.00;;;8.90
38114;BMP180;23926;53.222;6.354;2023-04-15T06:33:46;101168.00;;;9.10
38114;BMP180;23926;53.222;6.354;2023-04-15T06:36:12;101171.00;;;9.30
38114;BMP180;23926;53.222;6.354;2023-04-15T06:38:37;101173.00;;;9.40
38114;BMP180;23926;53.222;6.354;2023-04-15T06:41:03;101184.00;;;9.50
38114;BMP180;23926;53.222;6.354;2023-04-15T06:43:29;101186.00;;;9.70
38114;BMP180;23926;53.222;6.354;2023-04-15T06:45:55;101196.00;;;9.80
38114;BMP180;23926;53.222;6.354;2023-04-15T06:48:21;101193.00;;;10.00
38114;BMP180;23926;53.222;6.354;2023-04-15T06:50:47;101187.00;;;10.20
38114;BMP180;23926;53.222;6.354;2023-04-15T06:53:13;101192.00;;;10.30
38114;BMP180;23926;53.222;6.354;2023-04-15T06:55:38;101209.00;;;10.40
38114;BMP180;23926;53.222;6.354;2023-04-15T06:58:04;101204.00;;;10.60
38114;BMP180;23926;53.222;6.354;2023-04-15T07:00:30;101204.00;;;10.70
38114;BMP180;23926;53.222;6.354;2023-04-15T07:02:55;101199.00;;;10.80
38114;BMP180;23926;53.222;6.354;2023-04-15T07:05:21;101205.00;;;10.80
38114;BMP180;23926;53.222;6.354;2023-04-15T07:07:46;101216.00;;;11.00
38114;BMP180;23926;53.222;6.354;2023-04-15T07:10:12;101211.00;;;10.90
38114;BMP180;23926;53.222;6.354;2023-04-15T07:12:39;101211.00;;;11.00
38114;BMP180;23926;53.222;6.354;2023-04-15T07:15:05;101225.00;;;11.00
38114;BMP180;23926;53.222;6.354;2023-04-15T07:17:30;101219.00;;;11.10
38114;BMP180;23926;53.222;6.354;2023-04-15T07:19:56;101241.00;;;11.10
38114;BMP180;23926;53.222;6.354;2023-04-15T07:22:21;101227.00;;;11.00
38114;BMP180;23926;53.222;6.354;2023-04-15T07:24:47;101235.00;;;11.10
38114;BMP180;23926;53.222;6.354;2023-04-15T07:27:12;101227.00;;;11.30
38114;BMP180;23926;53.222;6.354;2023-04-15T07:29:38;101242.00;;;11.20
38114;BMP180;23926;53.222;6.354;2023-04-15T07:32:03;101233.00;;;11.20
38114;BMP180;23926;53.222;6.354;2023-04-15T07:34:29;101238.00;;;11.20
38114;BMP180;23926;53.222;6.354;2023-04-15T07:36:54;101236.00;;;11.20
38114;BMP180;23926;53.222;6.354;2023-04-15T07:39:19;101242.00;;;11.40
38114;BMP180;23926;53.222;6.354;2023-04-15T07:41:45;101248.00;;;11.40
38114;BMP180;23926;53.222;6.354;2023-04-15T07:44:10;101263.00;;;11.50
38114;BMP180;23926;53.222;6.354;2023-04-15T07:46:36;101266.00;;;11.60
38114;BMP180;23926;53.222;6.354;2023-04-15T07:49:02;101271.00;;;11.60
38114;BMP180;23926;53.222;6.354;2023-04-15T07:51:28;101251.00;;;11.60
38114;BMP180;23926;53.222;6.354;2023-04-15T07:53:54;101263.00;;;11.70
38114;BMP180;23926;53.222;6.354;2023-04-15T07:56:19;101265.00;;;11.70
38114;BMP180;23926;53.222;6.354;2023-04-15T07:58:45;101268.00;;;11.70
38114;BMP180;23926;53.222;6.354;2023-04-15T08:01:10;101262.00;;;11.60
38114;BMP180;23926;53.222;6.354;2023-04-15T08:03:36;101275.00;;;11.80
38114;BMP180;23926;53.222;6.354;2023-04-15T08:06:01;101279.00;;;11.80
38114;BMP180;23926;53.222;6.354;2023-04-15T08:08:27;101283.00;;;11.80
38114;BMP180;23926;53.222;6.354;2023-04-15T08:10:52;101289.00;;;11.70
38114;BMP180;23926;53.222;6.354;2023-04-15T08:13:18;101287.00;;;11.50
38114;BMP180;23926;53.222;6.354;2023-04-15T08:15:43;101282.00;;;11.60
38114;BMP180;23926;53.222;6.354;2023-04-15T08:18:09;101279.00;;;11.70
38114;BMP180;23926;53.222;6.354;2023-04-15T08:20:35;101273.00;;;11.80
38114;BMP180;23926;53.222;6.354;2023-04-15T08:23:01;101287.00;;;11.70
38114;BMP180;23926;53.222;6.354;2023-04-15T08:25:27;101293.00;;;11.70
38114;BMP180;23926;53.222;6.354;2023-04-15T08:27:56;101276.00;;;11.60
38114;BMP180;23926;53.222;6.354;2023-04-15T08:30:22;101293.00;;;11.80
38114;BMP180;23926;53.222;6.354;2023-04-15T08:32:50;101284.00;;;11.70
38114;BMP180;23926;53.222;6.354;2023-04-15T08:35:15;101304.00;;;11.60
38114;BMP180;23926;53.222;6.354;2023-04-15T08:37:41;101290.00;;;11.60
38114;BMP180;23926;53.222;6.354;2023-04-15T08:40:07;101281.00;;;11.70
38114;BMP180;23926;53.222;6.354;2023-04-15T08:42:40;101285.00;;;11.70
38114;BMP180;23926;53.222;6.354;2023-04-15T08:45:08;101293.00;;;11.70
38114;BMP180;23926;53.222;6.354;2023-04-15T08:47:36;101299.00;;;11.80
38114;BMP180;23926;53.222;6.354;2023-04-15T08:50:03;101294.00;;;11.80
38114;BMP180;23926;53.222;6.354;2023-04-15T08:52:30;101303.00;;;11.90
38114;BMP180;23926;53.222;6.354;2023-04-15T08:54:56;101300.00;;;12.00
38114;BMP180;23926;53.222;6.354;2023-04-15T08:57:26;101302.00;;;11.90
38114;BMP180;23926;53.222;6.354;2023-04-15T08:59:54;101305.00;;;12.10
38114;BMP180;23926;53.222;6.354;2023-04-15T09:02:20;101300.00;;;11.80
38114;BMP180;23926;53.222;6.354;2023-04-15T09:04:46;101304.00;;;11.80
38114;BMP180;23926;53.222;6.354;2023-04-15T09:07:11;101305.00;;;11.70
38114;BMP180;23926;53.222;6.354;2023-04-15T09:09:37;101316.00;;;11.70
38114;BMP180;23926;53.222;6.354;2023-04-15T09:12:04;101323.00;;;11.70
38114;BMP180;23926;53.222;6.354;2023-04-15T09:14:29;101314.00;;;11.70
38114;BMP180;23926;53.222;6.354;2023-04-15T09:17:03;101329.00;;;11.70
38114;BMP180;23926;53.222;6.354;2023-04-15T09:19:29;101319.00;;;11.60
38114;BMP180;23926;53.222;6.354;2023-04-15T09:21:57;101330.00;;;11.80
38114;BMP180;23926;53.222;6.354;2023-04-15T09:24:23;101325.00;;;11.90
38114;BMP180;23926;53.222;6.354;2023-04-15T09:26:52;101325.00;;;11.80
38114;BMP180;23926;53.222;6.354;2023-04-15T09:29:18;101341.00;;;11.90
38114;BMP180;23926;53.222;6.354;2023-04-15T09:31:44;101339.00;;;12.10
38114;BMP180;23926;53.222;6.354;2023-04-15T09:34:10;101340.00;;;12.60
38114;BMP180;23926;53.222;6.354;2023-04-15T09:36:55;101345.00;;;12.80
38114;BMP180;23926;53.222;6.354;2023-04-15T09:39:21;101348.00;;;12.90
38114;BMP180;23926;53.222;6.354;2023-04-15T09:41:52;101350.00;;;13.20
38114;BMP180;23926;53.222;6.354;2023-04-15T09:44:28;101346.00;;;13.10
38114;BMP180;23926;53.222;6.354;2023-04-15T09:46:53;101349.00;;;13.00
38114;BMP180;23926;53.222;6.354;2023-04-15T09:49:18;101348.00;;;13.10
38114;BMP180;23926;53.222;6.354;2023-04-15T09:51:45;101349.00;;;13.00
38114;BMP180;23926;53.222;6.354;2023-04-15T09:54:11;101360.00;;;12.90
38114;BMP180;23926;53.222;6.354;2023-04-15T09:56:38;101359.00;;;12.80
38114;BMP180;23926;53.222;6.354;2023-04-15T09:59:09;101358.00;;;12.70
38114;BMP180;23926;53.222;6.354;2023-04-15T10:01:35;101364.00;;;12.70
38114;BMP180;23926;53.222;6.354;2023-04-15T10:04:04;101364.00;;;12.60
38114;BMP180;23926;53.222;6.354;2023-04-15T10:06:30;101367.00;;;12.80
38114;BMP180;23926;53.222;6.354;2023-04-15T10:08:58;101374.00;;;13.10
38114;BMP180;23926;53.222;6.354;2023-04-15T10:11:27;101371.00;;;13.00
38114;BMP180;23926;53.222;6.354;2023-04-15T10:13:55;101364.00;;;13.00
38114;BMP180;23926;53.222;6.354;2023-04-15T10:16:22;101373.00;;;13.10
38114;BMP180;23926;53.222;6.354;2023-04-15T10:18:54;101381.00;;;13.00
38114;BMP180;23926;53.222;6.354;2023-04-15T10:21:19;101394.00;;;13.00
38114;BMP180;23926;53.222;6.354;2023-04-15T10:23:47;101387.00;;;13.20
38114;BMP180;23926;53.222;6.354;2023-04-15T10:26:13;101383.00;;;13.10
38114;BMP180;23926;53.222;6.354;2023-04-15T10:28:43;101377.00;;;13.00
38114;BMP180;23926;53.222;6.354;2023-04-15T10:31:11;101378.00;;;12.90
38114;BMP180;23926;53.222;6.354;2023-04-15T10:33:40;101383.00;;;12.90
38114;BMP180;23926;53.222;6.354;2023-04-15T10:36:07;101380.00;;;12.90
38114;BMP180;23926;53.222;6.354;2023-04-15T10:38:39;101396.00;;;12.70
38114;BMP180;23926;53.222;6.354;2023-04-15T10:41:12;101392.00;;;12.90
38114;BMP180;23926;53.222;6.354;2023-04-15T10:43:39;101385.00;;;12.90
38114;BMP180;23926;53.222;6.354;2023-04-15T10:46:05;101380.00;;;12.70
38114;BMP180;23926;53.222;6.354;2023-04-15T10:48:31;101401.00;;;12.60
38114;BMP180;23926;53.222;6.354;2023-04-15T10:50:57;101400.00;;;12.90
38114;BMP180;23926;53.222;6.354;2023-04-15T10:53:28;101401.00;;;13.00
38114;BMP180;23926;53.222;6.354;2023-04-15T10:55:54;101401.00;;;12.90
38114;BMP180;23926;53.222;6.354;2023-04-15T10:58:24;101401.00;;;13.00
38114;BMP180;23926;53.222;6.354;2023-04-15T11:00:51;101394.00;;;12.90
38114;BMP180;23926;53.222;6.354;2023-04-15T11:03:35;101401.00;;;12.80
38114;BMP180;23926;53.222;6.354;2023-04-15T11:06:01;101400.00;;;12.70
38114;BMP180;23926;53.222;6.354;2023-04-15T11:08:53;101412.00;;;12.70
38114;BMP180;23926;53.222;6.354;2023-04-15T11:11:19;101413.00;;;12.80
38114;BMP180;23926;53.222;6.354;2023-04-15T11:13:49;101406.00;;;12.80
38114;BMP180;23926;53.222;6.354;2023-04-15T11:16:15;101421.00;;;12.80
38114;BMP180;23926;53.222;6.354;2023-04-15T11:18:41;101421.00;;;12.70
38114;BMP180;23926;53.222;6.354;2023-04-15T11:21:07;101418.00;;;12.60
38114;BMP180;23926;53.222;6.354;2023-04-15T11:23:40;101437.00;;;12.60
38114;BMP180;23926;53.222;6.354;2023-04-15T11:26:09;101407.00;;;12.60
38114;BMP180;23926;53.222;6.354;2023-04-15T11:28:40;101415.00;;;12.40
38114;BMP180;23926;53.222;6.354;2023-04-15T11:31:13;101426.00;;;12.60
38114;BMP180;23926;53.222;6.354;2023-04-15T11:33:56;101441.00;;;12.80
38114;BMP180;23926;53.222;6.354;2023-04-15T11:36:24;101433.00;;;12.80
38114;BMP180;23926;53.222;6.354;2023-04-15T11:38:51;101432.00;;;12.80
38114;BMP180;23926;53.222;6.354;2023-04-15T11:41:23;101426.00;;;12.60
38114;BMP180;23926;53.222;6.354;2023-04-15T11:43:49;101448.00;;;12.60
38114;BMP180;23926;53.222;6.354;2023-04-15T11:46:15;101439.00;;;12.70
38114;BMP180;23926;53.222;6.354;2023-04-15T11:48:42;101432.00;;;12.90
38114;BMP180;23926;53.222;6.354;2023-04-15T11:51:09;101438.00;;;12.90
38114;BMP180;23926;53.222;6.354;2023-04-15T11:56:01;101459.00;;;13.20
38114;BMP180;23926;53.222;6.354;2023-04-15T11:58:28;101451.00;;;13.10
38114;BMP180;23926;53.222;6.354;2023-04-15T12:00:56;101451.00;;;13.00
38114;BMP180;23926;53.222;6.354;2023-04-15T12:03:25;101463.00;;;12.80
38114;BMP180;23926;53.222;6.354;2023-04-15T12:06:20;101454.00;;;12.80
38114;BMP180;23926;53.222;6.354;2023-04-15T12:08:58;101461.00;;;12.80
38114;BMP180;23926;53.222;6.354;2023-04-15T12:11:49;101473.00;;;12.70
38114;BMP180;23926;53.222;6.354;2023-04-15T12:14:26;101467.00;;;12.50
38114;BMP180;23926;53.222;6.354;2023-04-15T12:16:57;101470.00;;;12.50
38114;BMP180;23926;53.222;6.354;2023-04-15T12:19:45;101487.00;;;12.20
38114;BMP180;23926;53.222;6.354;2023-04-15T12:22:14;101486.00;;;12.20
38114;BMP180;23926;53.222;6.354;2023-04-15T12:24:40;101476.00;;;12.30
38114;BMP180;23926;53.222;6.354;2023-04-15T12:27:10;101472.00;;;12.40
38114;BMP180;23926;53.222;6.354;2023-04-15T12:29:37;101479.00;;;12.50
38114;BMP180;23926;53.222;6.354;2023-04-15T12:32:10;101480.00;;;12.50
38114;BMP180;23926;53.222;6.354;2023-04-15T12:34:38;101501.00;;;12.50
38114;BMP180;23926;53.222;6.354;2023-04-15T12:37:05;101487.00;;;12.70
38114;BMP180;23926;53.222;6.354;2023-04-15T12:39:34;101488.00;;;12.80
38114;BMP180;23926;53.222;6.354;2023-04-15T12:42:00;101510.00;;;12.70
38114;BMP180;23926;53.222;6.354;2023-04-15T12:44:26;101494.00;;;12.70
38114;BMP180;23926;53.222;6.354;2023-04-15T12:46:53;101494.00;;;12.60
38114;BMP180;23926;53.222;6.354;2023-04-15T12:49:19;101505.00;;;12.60
38114;BMP180;23926;53.222;6.354;2023-04-15T12:51:49;101495.00;;;12.60
38114;BMP180;23926;53.222;6.354;2023-04-15T12:54:16;101498.00;;;12.60
38114;BMP180;23926;53.222;6.354;2023-04-15T12:56:42;101491.00;;;12.80
38114;BMP180;23926;53.222;6.354;2023-04-15T12:59:07;101496.00;;;12.80
38114;BMP180;23926;53.222;6.354;2023-04-15T13:01:32;101492.00;;;12.80
38114;BMP180;23926;53.222;6.354;2023-04-15T13:03:58;101508.00;;;12.90
38114;BMP180;23926;53.222;6.354;2023-04-15T13:06:23;101506.00;;;12.80
38114;BMP180;23926;53.222;6.354;2023-04-15T13:08:49;101500.00;;;13.00
38114;BMP180;23926;53.222;6.354;2023-04-15T13:11:15;101515.00;;;13.00
38114;BMP180;23926;53.222;6.354;2023-04-15T13:13:41;101514.00;;;12.80
38114;BMP180;23926;53.222;6.354;2023-04-15T13:16:07;101527.00;;;12.80
38114;BMP180;23926;53.222;6.354;2023-04-15T13:18:32;101511.00;;;12.80
38114;BMP180;23926;53.222;6.354;2023-04-15T13:20:59;101524.00;;;12.90
38114;BMP180;23926;53.222;6.354;2023-04-15T13:23:25;101514.00;;;12.80
38114;BMP180;23926;53.222;6.354;2023-04-15T13:25:50;101518.00;;;12.60
38114;BMP180;23926;53.222;6.354;2023-04-15T13:28:16;101529.00;;;12.40
38114;BMP180;23926;53.222;6.354;2023-04-15T13:30:41;101519.00;;;12.30
38114;BMP180;23926;53.222;6.354;2023-04-15T13:33:08;101516.00;;;12.30
38114;BMP180;23926;53.222;6.354;2023-04-15T13:35:34;101537.00;;;12.10
38114;BMP180;23926;53.222;6.354;2023-04-15T13:38:00;101536.00;;;12.20
38114;BMP180;23926;53.222;6.354;2023-04-15T13:40:25;101546.00;;;12.30
38114;BMP180;23926;53.222;6.354;2023-04-15T13:42:51;101531.00;;;12.30
38114;BMP180;23926;53.222;6.354;2023-04-15T13:45:17;101536.00;;;12.40
38114;BMP180;23926;53.222;6.354;2023-04-15T13:47:43;101531.00;;;12.50
38114;BMP180;23926;53.222;6.354;2023-04-15T13:50:08;101545.00;;;12.00
38114;BMP180;23926;53.222;6.354;2023-04-15T13:52:34;101541.00;;;11.70
38114;BMP180;23926;53.222;6.354;2023-04-15T13:54:59;101541.00;;;11.70
38114;BMP180;23926;53.222;6.354;2023-04-15T13:57:25;101538.00;;;11.70
38114;BMP180;23926;53.222;6.354;2023-04-15T13:59:51;101541.00;;;11.50
38114;BMP180;23926;53.222;6.354;2023-04-15T14:02:16;101555.00;;;11.40